Coral Ruby — 3ERR6 — position and weather

sailwx.info

Track history (hours):
 
Tides and Currents Weather Stations Pressure Air Temp Water Temp Dewpoint Dewpoint Depression Visibility Wind Speed Wind Dir Waves Ship Positions

Coral Ruby

Last reported at 2014-Dec-19 20:32 UTC. Time now 2014-Dec-19 21:06 UTC.
Position N 34°42' E 135°15'.

Length 225 m; draft 11.8 m.

Type: Ship. MMSI: 370150000.

Date/timePositionNaut miles runAvg speedWind from/ knotsBaromVisibWave heightAir tempDewpointWater temp
2014-Dec-19 20:32N 34°42' E 135°15'0 0.0
2014-Dec-19 19:29N 34°42' E 135°15'0 0.0
2014-Dec-19 18:32N 34°42' E 135°15'0 0.0
2014-Dec-19 17:23N 34°42' E 135°15'0 0.0
2014-Dec-19 16:29N 34°42' E 135°15'0 0.0
2014-Dec-19 15:29N 34°42' E 135°15'0 0.0
2014-Dec-19 14:23N 34°42' E 135°15'0 0.0
2014-Dec-19 13:32N 34°42' E 135°15'0 0.0
2014-Dec-19 12:29N 34°42' E 135°15'0 0.0
2014-Dec-19 11:29N 34°42' E 135°15'0 0.0
2014-Dec-19 10:29N 34°42' E 135°15'0 0.0
2014-Dec-19 09:29N 34°42' E 135°15'0 0.0
2014-Dec-19 08:29N 34°42' E 135°15'0 0.0
2014-Dec-19 07:29N 34°42' E 135°15'0 0.0
2014-Dec-19 06:29N 34°42' E 135°15'0 0.0
2014-Dec-19 05:29N 34°42' E 135°15'0 0.0
2014-Dec-19 04:23N 34°42' E 135°15'0 0.0
2014-Dec-19 03:29N 34°42' E 135°15'0 0.0
2014-Dec-19 02:29N 34°42' E 135°15'0 0.0
2014-Dec-19 01:23N 34°42' E 135°15'0 0.0
2014-Dec-19 00:29N 34°42' E 135°15'0 0.0
2014-Dec-18 23:23N 34°42' E 135°15'0 0.0
2014-Dec-18 22:29N 34°42' E 135°15'0 0.0
2014-Dec-18 21:29N 34°42' E 135°15'0 0.0
2014-Dec-18 20:29N 34°42' E 135°15'0 0.0
2014-Dec-18 19:29N 34°42' E 135°15'0 0.0
2014-Dec-18 18:29N 34°42' E 135°15'0 0.0
2014-Dec-18 17:32N 34°42' E 135°15'0 0.0
2014-Dec-18 16:32N 34°42' E 135°15'0 0.0
2014-Dec-18 15:29N 34°42' E 135°15'0 0.0
2014-Dec-18 14:29N 34°42' E 135°15'0 0.0
2014-Dec-18 13:29N 34°42' E 135°15'0 0.0
2014-Dec-18 12:29N 34°42' E 135°15'0 0.0
2014-Dec-18 11:23N 34°42' E 135°15'0 0.0
2014-Dec-18 10:29N 34°42' E 135°15'0 0.0
2014-Dec-18 09:29N 34°42' E 135°15'0 0.0
2014-Dec-18 08:29N 34°42' E 135°15'0 0.0
2014-Dec-18 07:29N 34°42' E 135°15'0 0.0
2014-Dec-18 06:29N 34°42' E 135°15'0 0.0
2014-Dec-18 05:29N 34°42' E 135°15'0 0.0
2014-Dec-18 04:29N 34°42' E 135°15'2 2.2
2014-Dec-18 03:34N 34°40' E 135°15'3 2.9
2014-Dec-18 02:32N 34°38' E 135°18'0 0.0
2014-Dec-18 01:32N 34°38' E 135°18'0 0.1
2014-Dec-18 00:32N 34°38' E 135°18'0 0.1
2014-Dec-17 23:32N 34°38' E 135°18'0 0.0
2014-Dec-17 22:26N 34°38' E 135°18'0 0.1
2014-Dec-17 21:32N 34°38' E 135°18'0 0.0
2014-Dec-17 20:32N 34°38' E 135°18'0 0.1
2014-Dec-17 19:32N 34°38' E 135°18'0 0.1
2014-Dec-17 18:32N 34°38' E 135°18'0 0.0
2014-Dec-17 17:32N 34°38' E 135°18'0 0.0
2014-Dec-17 16:32N 34°38' E 135°18'0 0.0
2014-Dec-17 15:32N 34°38' E 135°18'0 0.0
2014-Dec-17 14:20N 34°38' E 135°18'0 0.0
2014-Dec-17 13:32N 34°38' E 135°18'0 0.0
2014-Dec-17 12:32N 34°38' E 135°18'0 0.0
2014-Dec-17 11:32N 34°38' E 135°18'0 0.0
2014-Dec-17 10:32N 34°38' E 135°18'1 0.7
2014-Dec-17 09:34N 34°37' E 135°18'1211.7
2014-Dec-17 08:33N 34°28' E 135°10'1312.9
2014-Dec-17 07:31N 34°17' E 134°59'9 9.6
2014-Dec-17 06:33N 34°08' E 134°60'8 7.7
2014-Dec-17 05:33N 34°00' E 134°59'  
Track history (hours):
 
Tides and Currents Weather Stations Pressure Air Temp Water Temp Dewpoint Dewpoint Depression Visibility Wind Speed Wind Dir Waves Ship Positions

Coral Ruby

Last reported at 2014-Dec-19 20:32 UTC. Time now 2014-Dec-19 21:06 UTC.
Position N 34°42' E 135°15'.

Length 225 m; draft 11.8 m.

Type: Ship. MMSI: 370150000.

Date/timePositionNaut miles runAvg speedWind from/ knotsBaromVisibWave heightAir tempDewpointWater temp
2014-Dec-19 20:32N 34°42' E 135°15'0 0.0
2014-Dec-19 19:29N 34°42' E 135°15'0 0.0
2014-Dec-19 18:32N 34°42' E 135°15'0 0.0
2014-Dec-19 17:23N 34°42' E 135°15'0 0.0
2014-Dec-19 16:29N 34°42' E 135°15'0 0.0
2014-Dec-19 15:29N 34°42' E 135°15'0 0.0
2014-Dec-19 14:23N 34°42' E 135°15'0 0.0
2014-Dec-19 13:32N 34°42' E 135°15'0 0.0
2014-Dec-19 12:29N 34°42' E 135°15'0 0.0
2014-Dec-19 11:29N 34°42' E 135°15'0 0.0
2014-Dec-19 10:29N 34°42' E 135°15'0 0.0
2014-Dec-19 09:29N 34°42' E 135°15'0 0.0
2014-Dec-19 08:29N 34°42' E 135°15'0 0.0
2014-Dec-19 07:29N 34°42' E 135°15'0 0.0
2014-Dec-19 06:29N 34°42' E 135°15'0 0.0
2014-Dec-19 05:29N 34°42' E 135°15'0 0.0
2014-Dec-19 04:23N 34°42' E 135°15'0 0.0
2014-Dec-19 03:29N 34°42' E 135°15'0 0.0
2014-Dec-19 02:29N 34°42' E 135°15'0 0.0
2014-Dec-19 01:23N 34°42' E 135°15'0 0.0
2014-Dec-19 00:29N 34°42' E 135°15'0 0.0
2014-Dec-18 23:23N 34°42' E 135°15'0 0.0
2014-Dec-18 22:29N 34°42' E 135°15'0 0.0
2014-Dec-18 21:29N 34°42' E 135°15'0 0.0
2014-Dec-18 20:29N 34°42' E 135°15'0 0.0
2014-Dec-18 19:29N 34°42' E 135°15'0 0.0
2014-Dec-18 18:29N 34°42' E 135°15'0 0.0
2014-Dec-18 17:32N 34°42' E 135°15'0 0.0
2014-Dec-18 16:32N 34°42' E 135°15'0 0.0
2014-Dec-18 15:29N 34°42' E 135°15'0 0.0
2014-Dec-18 14:29N 34°42' E 135°15'0 0.0
2014-Dec-18 13:29N 34°42' E 135°15'0 0.0
2014-Dec-18 12:29N 34°42' E 135°15'0 0.0
2014-Dec-18 11:23N 34°42' E 135°15'0 0.0
2014-Dec-18 10:29N 34°42' E 135°15'0 0.0
2014-Dec-18 09:29N 34°42' E 135°15'0 0.0
2014-Dec-18 08:29N 34°42' E 135°15'0 0.0
2014-Dec-18 07:29N 34°42' E 135°15'0 0.0
2014-Dec-18 06:29N 34°42' E 135°15'0 0.0
2014-Dec-18 05:29N 34°42' E 135°15'0 0.0
2014-Dec-18 04:29N 34°42' E 135°15'2 2.2
2014-Dec-18 03:34N 34°40' E 135°15'3 2.9
2014-Dec-18 02:32N 34°38' E 135°18'0 0.0
2014-Dec-18 01:32N 34°38' E 135°18'0 0.1
2014-Dec-18 00:32N 34°38' E 135°18'0 0.1
2014-Dec-17 23:32N 34°38' E 135°18'0 0.0
2014-Dec-17 22:26N 34°38' E 135°18'0 0.1
2014-Dec-17 21:32N 34°38' E 135°18'0 0.0
2014-Dec-17 20:32N 34°38' E 135°18'0 0.1
2014-Dec-17 19:32N 34°38' E 135°18'0 0.1
2014-Dec-17 18:32N 34°38' E 135°18'0 0.0
2014-Dec-17 17:32N 34°38' E 135°18'0 0.0
2014-Dec-17 16:32N 34°38' E 135°18'0 0.0
2014-Dec-17 15:32N 34°38' E 135°18'0 0.0
2014-Dec-17 14:20N 34°38' E 135°18'0 0.0
2014-Dec-17 13:32N 34°38' E 135°18'0 0.0
2014-Dec-17 12:32N 34°38' E 135°18'0 0.0
2014-Dec-17 11:32N 34°38' E 135°18'0 0.0
2014-Dec-17 10:32N 34°38' E 135°18'1 0.7
2014-Dec-17 09:34N 34°37' E 135°18'1211.7
2014-Dec-17 08:33N 34°28' E 135°10'1312.9
2014-Dec-17 07:31N 34°17' E 134°59'9 9.6
2014-Dec-17 06:33N 34°08' E 134°60'8 7.7
2014-Dec-17 05:33N 34°00' E 134°59'  

Dump ship's entire track history